sensor_id;sensor_type;location;lat;lon;timestamp;pressure;altitude;pressure_sealevel;temperature;humidity
36190;BME280;22232;50.914;13.858;2022-09-29T00:01:08;96303.91;;;4.98;100.00
36190;BME280;22232;50.914;13.858;2022-09-29T00:03:36;96309.97;;;4.98;100.00
36190;BME280;22232;50.914;13.858;2022-09-29T00:06:11;96315.50;;;4.97;100.00
36190;BME280;22232;50.914;13.858;2022-09-29T00:08:38;96317.34;;;4.96;100.00
36190;BME280;22232;50.914;13.858;2022-09-29T00:11:14;96324.56;;;5.01;100.00
36190;BME280;22232;50.914;13.858;2022-09-29T00:13:43;96311.38;;;5.01;100.00
36190;BME280;22232;50.914;13.858;2022-09-29T00:16:11;96311.63;;;4.99;100.00
36190;BME280;22232;50.914;13.858;2022-09-29T00:18:39;96320.34;;;5.00;100.00
36190;BME280;22232;50.914;13.858;2022-09-29T00:21:10;96324.81;;;4.99;100.00
36190;BME280;22232;50.914;13.858;2022-09-29T00:23:37;96327.09;;;4.96;100.00
36190;BME280;22232;50.914;13.858;2022-09-29T00:26:17;96330.56;;;4.96;100.00
36190;BME280;22232;50.914;13.858;2022-09-29T00:28:48;96322.06;;;4.94;100.00
36190;BME280;22232;50.914;13.858;2022-09-29T00:31:19;96325.16;;;4.91;100.00
36190;BME280;22232;50.914;13.858;2022-09-29T00:33:48;96322.53;;;4.91;100.00
36190;BME280;22232;50.914;13.858;2022-09-29T00:36:17;96326.22;;;4.90;100.00
36190;BME280;22232;50.914;13.858;2022-09-29T00:38:46;96317.47;;;4.90;100.00
36190;BME280;22232;50.914;13.858;2022-09-29T00:41:16;96323.19;;;4.87;100.00
36190;BME280;22232;50.914;13.858;2022-09-29T00:46:24;96317.13;;;4.86;100.00
36190;BME280;22232;50.914;13.858;2022-09-29T00:48:55;96323.56;;;4.90;100.00
36190;BME280;22232;50.914;13.858;2022-09-29T00:51:26;96323.09;;;4.93;100.00
36190;BME280;22232;50.914;13.858;2022-09-29T00:53:56;96324.91;;;4.93;100.00
36190;BME280;22232;50.914;13.858;2022-09-29T00:56:24;96321.47;;;4.92;100.00
36190;BME280;22232;50.914;13.858;2022-09-29T00:58:53;96321.25;;;4.94;100.00
36190;BME280;22232;50.914;13.858;2022-09-29T01:01:23;96322.28;;;4.93;100.00
36190;BME280;22232;50.914;13.858;2022-09-29T01:03:56;96327.94;;;4.96;100.00
36190;BME280;22232;50.914;13.858;2022-09-29T01:06:33;96324.47;;;4.96;100.00
36190;BME280;22232;50.914;13.858;2022-09-29T01:09:05;96321.81;;;4.96;100.00
36190;BME280;22232;50.914;13.858;2022-09-29T01:11:34;96321.81;;;4.96;100.00
36190;BME280;22232;50.914;13.858;2022-09-29T01:14:04;96323.09;;;4.93;100.00
36190;BME280;22232;50.914;13.858;2022-09-29T01:16:34;96324.38;;;4.91;100.00
36190;BME280;22232;50.914;13.858;2022-09-29T01:19:10;96328.59;;;4.92;100.00
36190;BME280;22232;50.914;13.858;2022-09-29T01:35:11;96338.25;;;4.86;100.00
36190;BME280;22232;50.914;13.858;2022-09-29T01:40:16;96335.84;;;4.85;100.00
36190;BME280;22232;50.914;13.858;2022-09-29T01:42:48;96339.75;;;4.82;100.00
36190;BME280;22232;50.914;13.858;2022-09-29T01:45:48;96339.28;;;4.85;100.00
36190;BME280;22232;50.914;13.858;2022-09-29T01:48:21;96334.81;;;4.86;100.00
36190;BME280;22232;50.914;13.858;2022-09-29T01:50:55;96336.66;;;4.85;100.00
36190;BME280;22232;50.914;13.858;2022-09-29T01:53:34;96338.50;;;4.85;100.00
36190;BME280;22232;50.914;13.858;2022-09-29T01:56:07;96342.53;;;4.87;100.00
36190;BME280;22232;50.914;13.858;2022-09-29T01:58:41;96341.13;;;4.85;100.00
36190;BME280;22232;50.914;13.858;2022-09-29T02:01:13;96346.97;;;4.87;100.00
36190;BME280;22232;50.914;13.858;2022-09-29T02:03:47;96347.56;;;4.89;100.00
36190;BME280;22232;50.914;13.858;2022-09-29T02:06:26;96340.44;;;4.89;100.00
36190;BME280;22232;50.914;13.858;2022-09-29T02:08:59;96339.63;;;4.89;100.00
36190;BME280;22232;50.914;13.858;2022-09-29T02:11:31;96343.41;;;4.93;100.00
36190;BME280;22232;50.914;13.858;2022-09-29T02:14:21;96339.97;;;4.92;100.00
36190;BME280;22232;50.914;13.858;2022-09-29T02:16:55;96344.25;;;4.93;100.00
36190;BME280;22232;50.914;13.858;2022-09-29T02:19:26;96344.78;;;4.95;100.00
36190;BME280;22232;50.914;13.858;2022-09-29T02:21:55;96349.53;;;4.93;100.00
36190;BME280;22232;50.914;13.858;2022-09-29T02:24:23;96354.22;;;4.91;100.00
36190;BME280;22232;50.914;13.858;2022-09-29T02:26:51;96356.53;;;4.88;100.00
36190;BME280;22232;50.914;13.858;2022-09-29T02:29:19;96363.41;;;4.77;100.00
36190;BME280;22232;50.914;13.858;2022-09-29T02:31:47;96359.16;;;4.76;100.00
36190;BME280;22232;50.914;13.858;2022-09-29T02:34:18;96360.66;;;4.72;100.00
36190;BME280;22232;50.914;13.858;2022-09-29T02:58:25;96363.75;;;4.69;100.00
36190;BME280;22232;50.914;13.858;2022-09-29T03:00:57;96356.63;;;4.69;100.00
36190;BME280;22232;50.914;13.858;2022-09-29T03:03:24;96360.41;;;4.73;100.00
36190;BME280;22232;50.914;13.858;2022-09-29T03:05:52;96360.31;;;4.80;100.00
36190;BME280;22232;50.914;13.858;2022-09-29T03:08:20;96363.53;;;4.82;100.00
36190;BME280;22232;50.914;13.858;2022-09-29T03:10:47;96360.78;;;4.89;100.00
36190;BME280;22232;50.914;13.858;2022-09-29T03:13:15;96359.25;;;4.93;100.00
36190;BME280;22232;50.914;13.858;2022-09-29T03:15:43;96356.75;;;4.98;100.00
36190;BME280;22232;50.914;13.858;2022-09-29T03:18:10;96357.09;;;5.01;100.00
36190;BME280;22232;50.914;13.858;2022-09-29T03:20:38;96359.84;;;5.06;100.00
36190;BME280;22232;50.914;13.858;2022-09-29T03:23:05;96358.91;;;5.13;100.00
36190;BME280;22232;50.914;13.858;2022-09-29T03:25:33;96364.53;;;5.16;100.00
36190;BME280;22232;50.914;13.858;2022-09-29T03:28:01;96358.00;;;5.19;100.00
36190;BME280;22232;50.914;13.858;2022-09-29T03:30:28;96365.47;;;5.22;100.00
36190;BME280;22232;50.914;13.858;2022-09-29T03:32:56;96362.34;;;5.25;100.00
36190;BME280;22232;50.914;13.858;2022-09-29T03:35:23;96365.59;;;5.27;100.00
36190;BME280;22232;50.914;13.858;2022-09-29T03:37:51;96368.78;;;5.29;100.00
36190;BME280;22232;50.914;13.858;2022-09-29T03:40:19;96379.72;;;5.33;100.00
36190;BME280;22232;50.914;13.858;2022-09-29T03:42:47;96373.72;;;5.37;100.00
36190;BME280;22232;50.914;13.858;2022-09-29T03:45:14;96380.84;;;5.37;100.00
36190;BME280;22232;50.914;13.858;2022-09-29T03:47:42;96374.50;;;5.38;100.00
36190;BME280;22232;50.914;13.858;2022-09-29T03:50:10;96375.91;;;5.40;100.00
36190;BME280;22232;50.914;13.858;2022-09-29T03:52:37;96380.97;;;5.42;100.00
36190;BME280;22232;50.914;13.858;2022-09-29T03:55:05;96384.41;;;5.42;100.00
36190;BME280;22232;50.914;13.858;2022-09-29T03:57:33;96377.50;;;5.41;100.00
36190;BME280;22232;50.914;13.858;2022-09-29T04:00:01;96383.50;;;5.37;100.00
36190;BME280;22232;50.914;13.858;2022-09-29T04:02:34;96392.00;;;5.39;100.00
36190;BME280;22232;50.914;13.858;2022-09-29T04:05:02;96380.38;;;5.40;100.00
36190;BME280;22232;50.914;13.858;2022-09-29T04:07:29;96377.84;;;5.45;100.00
36190;BME280;22232;50.914;13.858;2022-09-29T04:09:58;96382.91;;;5.46;100.00
36190;BME280;22232;50.914;13.858;2022-09-29T04:12:25;96384.50;;;5.47;100.00
36190;BME280;22232;50.914;13.858;2022-09-29T04:14:53;96387.97;;;5.48;100.00
36190;BME280;22232;50.914;13.858;2022-09-29T04:17:20;96384.84;;;5.51;100.00
36190;BME280;22232;50.914;13.858;2022-09-29T04:19:48;96385.31;;;5.48;100.00
36190;BME280;22232;50.914;13.858;2022-09-29T04:22:15;96387.97;;;5.48;100.00
36190;BME280;22232;50.914;13.858;2022-09-29T04:24:45;96388.06;;;5.53;100.00
36190;BME280;22232;50.914;13.858;2022-09-29T04:27:15;96386.00;;;5.55;100.00
36190;BME280;22232;50.914;13.858;2022-09-29T04:29:43;96392.66;;;5.58;100.00
36190;BME280;22232;50.914;13.858;2022-09-29T04:32:10;96391.38;;;5.60;100.00
36190;BME280;22232;50.914;13.858;2022-09-29T04:34:37;96381.28;;;5.57;100.00
36190;BME280;22232;50.914;13.858;2022-09-29T04:37:07;96378.97;;;5.61;100.00
36190;BME280;22232;50.914;13.858;2022-09-29T04:39:37;96382.41;;;5.61;100.00
36190;BME280;22232;50.914;13.858;2022-09-29T04:42:05;96378.72;;;5.62;100.00
36190;BME280;22232;50.914;13.858;2022-09-29T04:44:32;96383.53;;;5.65;100.00
36190;BME280;22232;50.914;13.858;2022-09-29T04:47:00;96384.34;;;5.66;100.00
36190;BME280;22232;50.914;13.858;2022-09-29T04:49:27;96388.81;;;5.65;100.00
36190;BME280;22232;50.914;13.858;2022-09-29T04:51:55;96383.88;;;5.69;100.00
36190;BME280;22232;50.914;13.858;2022-09-29T04:54:23;96398.13;;;5.68;100.00
36190;BME280;22232;50.914;13.858;2022-09-29T04:56:50;96395.81;;;5.71;100.00
36190;BME280;22232;50.914;13.858;2022-09-29T04:59:18;96407.78;;;5.74;100.00
36190;BME280;22232;50.914;13.858;2022-09-29T05:01:45;96404.56;;;5.72;100.00
36190;BME280;22232;50.914;13.858;2022-09-29T05:04:13;96399.84;;;5.74;100.00
36190;BME280;22232;50.914;13.858;2022-09-29T05:06:40;96398.59;;;5.77;100.00
36190;BME280;22232;50.914;13.858;2022-09-29T05:09:08;96396.28;;;5.80;100.00
36190;BME280;22232;50.914;13.858;2022-09-29T05:11:36;96407.97;;;5.84;100.00
36190;BME280;22232;50.914;13.858;2022-09-29T05:14:03;96404.31;;;5.85;100.00
36190;BME280;22232;50.914;13.858;2022-09-29T05:16:31;96395.09;;;5.88;100.00
36190;BME280;22232;50.914;13.858;2022-09-29T05:18:58;96397.28;;;5.91;100.00
36190;BME280;22232;50.914;13.858;2022-09-29T05:21:26;96405.81;;;5.93;100.00
36190;BME280;22232;50.914;13.858;2022-09-29T05:23:55;96398.31;;;5.90;100.00
36190;BME280;22232;50.914;13.858;2022-09-29T05:26:23;96404.53;;;5.95;100.00
36190;BME280;22232;50.914;13.858;2022-09-29T05:28:51;96400.16;;;6.01;100.00
36190;BME280;22232;50.914;13.858;2022-09-29T05:31:18;96407.94;;;6.08;100.00
36190;BME280;22232;50.914;13.858;2022-09-29T05:33:46;96406.91;;;6.09;100.00
36190;BME280;22232;50.914;13.858;2022-09-29T05:36:13;96406.66;;;6.10;100.00
36190;BME280;22232;50.914;13.858;2022-09-29T05:38:41;96404.59;;;6.12;100.00
36190;BME280;22232;50.914;13.858;2022-09-29T05:41:10;96405.97;;;6.15;100.00
36190;BME280;22232;50.914;13.858;2022-09-29T05:43:39;96404.13;;;6.15;100.00
36190;BME280;22232;50.914;13.858;2022-09-29T05:46:08;96402.13;;;6.23;100.00
36190;BME280;22232;50.914;13.858;2022-09-29T05:48:36;96409.13;;;6.29;100.00
36190;BME280;22232;50.914;13.858;2022-09-29T05:51:09;96403.34;;;6.32;100.00
36190;BME280;22232;50.914;13.858;2022-09-29T05:53:37;96400.56;;;6.38;100.00
36190;BME280;22232;50.914;13.858;2022-09-29T05:56:12;96403.03;;;6.45;100.00
36190;BME280;22232;50.914;13.858;2022-09-29T05:58:41;96403.13;;;6.50;100.00
36190;BME280;22232;50.914;13.858;2022-09-29T06:01:11;96397.13;;;6.55;100.00
36190;BME280;22232;50.914;13.858;2022-09-29T06:03:39;96403.88;;;6.62;100.00
36190;BME280;22232;50.914;13.858;2022-09-29T06:06:09;96403.88;;;6.62;100.00
36190;BME280;22232;50.914;13.858;2022-09-29T06:08:37;96407.25;;;6.75;100.00
36190;BME280;22232;50.914;13.858;2022-09-29T06:13:47;96408.88;;;6.93;100.00
36190;BME280;22232;50.914;13.858;2022-09-29T06:16:16;96414.78;;;7.00;100.00
36190;BME280;22232;50.914;13.858;2022-09-29T06:18:46;96416.25;;;7.07;100.00
36190;BME280;22232;50.914;13.858;2022-09-29T06:21:22;96416.47;;;7.06;100.00
36190;BME280;22232;50.914;13.858;2022-09-29T06:23:52;96418.16;;;7.12;100.00
36190;BME280;22232;50.914;13.858;2022-09-29T06:26:21;96421.22;;;7.21;100.00
36190;BME280;22232;50.914;13.858;2022-09-29T06:28:54;96407.13;;;7.37;100.00
36190;BME280;22232;50.914;13.858;2022-09-29T06:31:25;96410.53;;;7.54;100.00
36190;BME280;22232;50.914;13.858;2022-09-29T06:33:58;96411.78;;;7.69;100.00
36190;BME280;22232;50.914;13.858;2022-09-29T06:36:43;96407.31;;;7.91;100.00
36190;BME280;22232;50.914;13.858;2022-09-29T06:39:29;96412.69;;;8.23;100.00
36190;BME280;22232;50.914;13.858;2022-09-29T06:41:57;96414.91;;;8.32;100.00
36190;BME280;22232;50.914;13.858;2022-09-29T06:44:26;96410.50;;;8.42;100.00
36190;BME280;22232;50.914;13.858;2022-09-29T06:46:54;96416.78;;;8.58;100.00
36190;BME280;22232;50.914;13.858;2022-09-29T06:49:23;96411.41;;;8.80;100.00
36190;BME280;22232;50.914;13.858;2022-09-29T06:51:51;96415.38;;;9.57;100.00
36190;BME280;22232;50.914;13.858;2022-09-29T06:54:21;96415.06;;;10.01;100.00
36190;BME280;22232;50.914;13.858;2022-09-29T06:56:52;96416.31;;;10.82;100.00
36190;BME280;22232;50.914;13.858;2022-09-29T06:59:20;96412.28;;;11.36;100.00
36190;BME280;22232;50.914;13.858;2022-09-29T07:01:48;96402.75;;;12.05;100.00
36190;BME280;22232;50.914;13.858;2022-09-29T07:04:19;96398.19;;;12.55;100.00
36190;BME280;22232;50.914;13.858;2022-09-29T07:06:47;96395.63;;;13.13;100.00
36190;BME280;22232;50.914;13.858;2022-09-29T07:09:16;96396.06;;;13.25;100.00
36190;BME280;22232;50.914;13.858;2022-09-29T07:11:46;96398.31;;;13.90;100.00
36190;BME280;22232;50.914;13.858;2022-09-29T07:14:15;96397.94;;;14.21;100.00
36190;BME280;22232;50.914;13.858;2022-09-29T07:16:43;96396.69;;;13.94;100.00
36190;BME280;22232;50.914;13.858;2022-09-29T07:19:10;96401.13;;;14.23;100.00
36190;BME280;22232;50.914;13.858;2022-09-29T07:21:38;96403.03;;;14.22;100.00
36190;BME280;22232;50.914;13.858;2022-09-29T07:24:07;96400.72;;;13.92;100.00
36190;BME280;22232;50.914;13.858;2022-09-29T07:26:35;96397.81;;;13.40;100.00
36190;BME280;22232;50.914;13.858;2022-09-29T07:29:03;96391.78;;;13.53;100.00
36190;BME280;22232;50.914;13.858;2022-09-29T07:31:31;96395.00;;;13.50;100.00
36190;BME280;22232;50.914;13.858;2022-09-29T07:34:11;96395.72;;;13.61;100.00
36190;BME280;22232;50.914;13.858;2022-09-29T07:36:38;96402.66;;;13.86;100.00
36190;BME280;22232;50.914;13.858;2022-09-29T07:39:06;96405.50;;;14.19;100.00
36190;BME280;22232;50.914;13.858;2022-09-29T07:41:33;96404.34;;;14.44;100.00
36190;BME280;22232;50.914;13.858;2022-09-29T07:44:01;96414.94;;;14.35;100.00
36190;BME280;22232;50.914;13.858;2022-09-29T07:46:29;96417.09;;;14.33;100.00
36190;BME280;22232;50.914;13.858;2022-09-29T07:48:57;96417.28;;;14.18;100.00
36190;BME280;22232;50.914;13.858;2022-09-29T07:51:24;96421.38;;;14.34;100.00
36190;BME280;22232;50.914;13.858;2022-09-29T07:53:52;96430.13;;;14.21;100.00
36190;BME280;22232;50.914;13.858;2022-09-29T07:56:21;96443.84;;;13.95;100.00
36190;BME280;22232;50.914;13.858;2022-09-29T07:58:49;96438.34;;;13.58;100.00
36190;BME280;22232;50.914;13.858;2022-09-29T08:01:18;96441.59;;;13.20;100.00
36190;BME280;22232;50.914;13.858;2022-09-29T08:03:53;96439.13;;;12.55;100.00
36190;BME280;22232;50.914;13.858;2022-09-29T08:06:23;96449.97;;;12.25;100.00
36190;BME280;22232;50.914;13.858;2022-09-29T08:08:51;96432.53;;;12.37;100.00
36190;BME280;22232;50.914;13.858;2022-09-29T08:11:35;96434.03;;;12.93;100.00
36190;BME280;22232;50.914;13.858;2022-09-29T08:14:04;96440.91;;;13.04;100.00
36190;BME280;22232;50.914;13.858;2022-09-29T08:16:32;96432.06;;;12.25;100.00
36190;BME280;22232;50.914;13.858;2022-09-29T08:19:01;96438.88;;;11.77;100.00
36190;BME280;22232;50.914;13.858;2022-09-29T08:21:31;96445.03;;;11.77;100.00
36190;BME280;22232;50.914;13.858;2022-09-29T08:24:03;96446.66;;;11.68;100.00
36190;BME280;22232;50.914;13.858;2022-09-29T08:26:34;96455.91;;;12.11;100.00
36190;BME280;22232;50.914;13.858;2022-09-29T08:29:11;96454.59;;;11.99;100.00
36190;BME280;22232;50.914;13.858;2022-09-29T08:31:43;96459.41;;;12.07;100.00
36190;BME280;22232;50.914;13.858;2022-09-29T08:34:11;96464.34;;;12.39;100.00
36190;BME280;22232;50.914;13.858;2022-09-29T08:36:40;96464.16;;;12.20;100.00
36190;BME280;22232;50.914;13.858;2022-09-29T08:39:09;96457.44;;;12.33;100.00
36190;BME280;22232;50.914;13.858;2022-09-29T08:41:51;96463.84;;;13.21;100.00
36190;BME280;22232;50.914;13.858;2022-09-29T08:47:19;96461.00;;;13.94;100.00
36190;BME280;22232;50.914;13.858;2022-09-29T08:49:59;96463.53;;;14.10;100.00
36190;BME280;22232;50.914;13.858;2022-09-29T08:52:32;96469.50;;;14.02;100.00
36190;BME280;22232;50.914;13.858;2022-09-29T08:57:58;96469.22;;;14.03;100.00
36190;BME280;22232;50.914;13.858;2022-09-29T09:00:34;96464.50;;;14.19;100.00
36190;BME280;22232;50.914;13.858;2022-09-29T09:03:22;96474.28;;;14.53;100.00
36190;BME280;22232;50.914;13.858;2022-09-29T09:14:47;96475.25;;;12.97;100.00
36190;BME280;22232;50.914;13.858;2022-09-29T09:20:31;96477.06;;;13.41;100.00
36190;BME280;22232;50.914;13.858;2022-09-29T09:26:02;96473.94;;;14.35;100.00
36190;BME280;22232;50.914;13.858;2022-09-29T09:31:12;96489.25;;;13.58;100.00
36190;BME280;22232;50.914;13.858;2022-09-29T09:33:43;96488.06;;;13.69;100.00
36190;BME280;22232;50.914;13.858;2022-09-29T09:36:33;96485.13;;;13.94;100.00
36190;BME280;22232;50.914;13.858;2022-09-29T09:41:37;96493.19;;;13.65;100.00
36190;BME280;22232;50.914;13.858;2022-09-29T09:44:14;96491.63;;;13.30;100.00
36190;BME280;22232;50.914;13.858;2022-09-29T09:46:52;96489.50;;;12.88;100.00
36190;BME280;22232;50.914;13.858;2022-09-29T09:49:32;96488.44;;;12.83;100.00
36190;BME280;22232;50.914;13.858;2022-09-29T09:52:11;96492.34;;;12.96;100.00
36190;BME280;22232;50.914;13.858;2022-09-29T09:54:45;96497.22;;;12.89;100.00
36190;BME280;22232;50.914;13.858;2022-09-29T10:00:15;96497.41;;;12.58;100.00
36190;BME280;22232;50.914;13.858;2022-09-29T10:02:47;96497.25;;;12.84;100.00
36190;BME280;22232;50.914;13.858;2022-09-29T10:05:18;96500.84;;;13.48;100.00
36190;BME280;22232;50.914;13.858;2022-09-29T10:07:47;96498.78;;;14.22;100.00
36190;BME280;22232;50.914;13.858;2022-09-29T10:10:20;96492.19;;;14.33;100.00
36190;BME280;22232;50.914;13.858;2022-09-29T10:13:00;96501.44;;;13.98;100.00
36190;BME280;22232;50.914;13.858;2022-09-29T10:18:13;96506.06;;;13.92;100.00
36190;BME280;22232;50.914;13.858;2022-09-29T10:20:43;96494.81;;;13.90;100.00
36190;BME280;22232;50.914;13.858;2022-09-29T10:28:22;96510.81;;;13.42;100.00
36190;BME280;22232;50.914;13.858;2022-09-29T10:30:51;96498.56;;;12.92;100.00
36190;BME280;22232;50.914;13.858;2022-09-29T10:33:22;96516.56;;;12.21;100.00
36190;BME280;22232;50.914;13.858;2022-09-29T10:36:05;96510.50;;;11.90;100.00
36190;BME280;22232;50.914;13.858;2022-09-29T10:38:34;96513.72;;;11.87;100.00
36190;BME280;22232;50.914;13.858;2022-09-29T10:41:05;96514.97;;;12.05;100.00
36190;BME280;22232;50.914;13.858;2022-09-29T10:46:00;96522.16;;;12.25;100.00
36190;BME280;22232;50.914;13.858;2022-09-29T10:48:28;96523.03;;;11.89;100.00
36190;BME280;22232;50.914;13.858;2022-09-29T10:51:02;96525.69;;;11.74;100.00
36190;BME280;22232;50.914;13.858;2022-09-29T10:53:40;96529.19;;;11.85;100.00
36190;BME280;22232;50.914;13.858;2022-09-29T10:56:22;96527.28;;;12.01;100.00
36190;BME280;22232;50.914;13.858;2022-09-29T11:02:59;96540.41;;;11.97;100.00
36190;BME280;22232;50.914;13.858;2022-09-29T11:05:21;96549.97;;;12.13;100.00
36190;BME280;22232;50.914;13.858;2022-09-29T11:07:51;96538.13;;;12.35;100.00
36190;BME280;22232;50.914;13.858;2022-09-29T11:10:34;96544.34;;;12.20;100.00
36190;BME280;22232;50.914;13.858;2022-09-29T11:15:43;96538.72;;;12.27;100.00
36190;BME280;22232;50.914;13.858;2022-09-29T11:18:18;96542.75;;;12.19;100.00
36190;BME280;22232;50.914;13.858;2022-09-29T11:20:52;96530.91;;;12.40;100.00
36190;BME280;22232;50.914;13.858;2022-09-29T11:26:42;96542.19;;;12.87;100.00
36190;BME280;22232;50.914;13.858;2022-09-29T11:37:56;96541.50;;;13.16;100.00
36190;BME280;22232;50.914;13.858;2022-09-29T11:43:23;96546.19;;;12.90;100.00
36190;BME280;22232;50.914;13.858;2022-09-29T11:52:44;96545.25;;;13.15;100.00
36190;BME280;22232;50.914;13.858;2022-09-29T12:06:09;96552.59;;;12.39;100.00
36190;BME280;22232;50.914;13.858;2022-09-29T12:11:17;96556.09;;;12.24;100.00
36190;BME280;22232;50.914;13.858;2022-09-29T12:14:15;96553.19;;;12.15;100.00
36190;BME280;22232;50.914;13.858;2022-09-29T12:16:58;96560.63;;;12.34;100.00
36190;BME280;22232;50.914;13.858;2022-09-29T12:19:31;96552.84;;;12.32;100.00
36190;BME280;22232;50.914;13.858;2022-09-29T12:22:02;96554.66;;;12.52;100.00
36190;BME280;22232;50.914;13.858;2022-09-29T12:24:36;96557.53;;;12.71;100.00
36190;BME280;22232;50.914;13.858;2022-09-29T12:27:11;96561.22;;;12.80;100.00
36190;BME280;22232;50.914;13.858;2022-09-29T12:29:43;96561.88;;;12.57;100.00
36190;BME280;22232;50.914;13.858;2022-09-29T12:32:36;96562.47;;;12.38;100.00
36190;BME280;22232;50.914;13.858;2022-09-29T12:35:15;96571.84;;;12.26;100.00
36190;BME280;22232;50.914;13.858;2022-09-29T12:38:00;96564.31;;;12.43;100.00
36190;BME280;22232;50.914;13.858;2022-09-29T12:40:41;96560.56;;;12.44;100.00
36190;BME280;22232;50.914;13.858;2022-09-29T12:43:28;96556.06;;;12.34;100.00
36190;BME280;22232;50.914;13.858;2022-09-29T12:46:08;96558.53;;;12.10;100.00
36190;BME280;22232;50.914;13.858;2022-09-29T12:56:28;96557.81;;;12.70;100.00
36190;BME280;22232;50.914;13.858;2022-09-29T12:59:19;96562.94;;;12.61;100.00
36190;BME280;22232;50.914;13.858;2022-09-29T13:01:54;96557.44;;;12.92;100.00
36190;BME280;22232;50.914;13.858;2022-09-29T13:04:32;96564.25;;;13.18;100.00
36190;BME280;22232;50.914;13.858;2022-09-29T13:16:37;96560.03;;;13.02;100.00
36190;BME280;22232;50.914;13.858;2022-09-29T13:27:22;96574.41;;;12.67;100.00
36190;BME280;22232;50.914;13.858;2022-09-29T13:32:40;96570.88;;;12.76;100.00
36190;BME280;22232;50.914;13.858;2022-09-29T13:35:15;96565.78;;;12.75;100.00
36190;BME280;22232;50.914;13.858;2022-09-29T13:37:49;96572.75;;;12.76;100.00
36190;BME280;22232;50.914;13.858;2022-09-29T13:40:19;96577.38;;;12.60;100.00
36190;BME280;22232;50.914;13.858;2022-09-29T13:42:48;96586.16;;;12.66;100.00
36190;BME280;22232;50.914;13.858;2022-09-29T13:47:58;96581.13;;;12.59;100.00
36190;BME280;22232;50.914;13.858;2022-09-29T13:50:43;96578.13;;;12.71;100.00
36190;BME280;22232;50.914;13.858;2022-09-29T13:58:29;96572.16;;;12.24;100.00
36190;BME280;22232;50.914;13.858;2022-09-29T14:01:02;96567.81;;;12.38;100.00
36190;BME280;22232;50.914;13.858;2022-09-29T14:03:41;96562.06;;;12.76;100.00
36190;BME280;22232;50.914;13.858;2022-09-29T14:09:12;96570.16;;;13.15;100.00
36190;BME280;22232;50.914;13.858;2022-09-29T14:11:47;96569.56;;;13.28;100.00
36190;BME280;22232;50.914;13.858;2022-09-29T14:16:58;96566.16;;;13.13;100.00
36190;BME280;22232;50.914;13.858;2022-09-29T14:22:04;96583.09;;;12.28;100.00
36190;BME280;22232;50.914;13.858;2022-09-29T14:30:18;96585.72;;;12.48;100.00
36190;BME280;22232;50.914;13.858;2022-09-29T14:35:38;96590.22;;;12.53;100.00
36190;BME280;22232;50.914;13.858;2022-09-29T14:38:17;96589.38;;;12.62;100.00
36190;BME280;22232;50.914;13.858;2022-09-29T15:03:47;96597.44;;;12.57;100.00
36190;BME280;22232;50.914;13.858;2022-09-29T15:11:48;96602.59;;;12.28;100.00
36190;BME280;22232;50.914;13.858;2022-09-29T15:19:30;96618.06;;;12.52;100.00
36190;BME280;22232;50.914;13.858;2022-09-29T15:27:13;96622.91;;;12.39;100.00
36190;BME280;22232;50.914;13.858;2022-09-29T15:29:46;96633.06;;;12.32;100.00
36190;BME280;22232;50.914;13.858;2022-09-29T15:32:22;96635.53;;;12.08;100.00
36190;BME280;22232;50.914;13.858;2022-09-29T15:34:51;96643.03;;;11.96;100.00
36190;BME280;22232;50.914;13.858;2022-09-29T15:37:22;96649.41;;;11.85;100.00
36190;BME280;22232;50.914;13.858;2022-09-29T15:39:51;96652.09;;;11.90;100.00
36190;BME280;22232;50.914;13.858;2022-09-29T15:42:20;96648.34;;;11.86;100.00
36190;BME280;22232;50.914;13.858;2022-09-29T15:47:36;96649.66;;;11.78;100.00
36190;BME280;22232;50.914;13.858;2022-09-29T15:50:19;96651.25;;;11.79;100.00
36190;BME280;22232;50.914;13.858;2022-09-29T15:52:48;96670.72;;;11.75;100.00
36190;BME280;22232;50.914;13.858;2022-09-29T15:55:26;96664.06;;;11.72;100.00
36190;BME280;22232;50.914;13.858;2022-09-29T15:57:53;96664.59;;;11.64;100.00
36190;BME280;22232;50.914;13.858;2022-09-29T16:06:04;96680.84;;;11.42;100.00
36190;BME280;22232;50.914;13.858;2022-09-29T16:08:37;96686.72;;;11.44;100.00
36190;BME280;22232;50.914;13.858;2022-09-29T16:11:15;96691.75;;;11.30;100.00
36190;BME280;22232;50.914;13.858;2022-09-29T16:13:52;96701.88;;;11.28;100.00
36190;BME280;22232;50.914;13.858;2022-09-29T16:16:28;96701.59;;;11.19;100.00
36190;BME280;22232;50.914;13.858;2022-09-29T16:18:59;96705.28;;;11.08;100.00
36190;BME280;22232;50.914;13.858;2022-09-29T16:21:33;96704.47;;;11.02;100.00
36190;BME280;22232;50.914;13.858;2022-09-29T16:24:10;96706.00;;;10.88;100.00
36190;BME280;22232;50.914;13.858;2022-09-29T16:31:38;96725.38;;;10.73;100.00
36190;BME280;22232;50.914;13.858;2022-09-29T16:36:51;96731.47;;;10.64;100.00
36190;BME280;22232;50.914;13.858;2022-09-29T16:39:24;96727.44;;;10.56;100.00
36190;BME280;22232;50.914;13.858;2022-09-29T16:41:55;96729.22;;;10.45;100.00
36190;BME280;22232;50.914;13.858;2022-09-29T16:44:29;96733.75;;;10.45;100.00
36190;BME280;22232;50.914;13.858;2022-09-29T16:47:23;96727.81;;;10.38;100.00
36190;BME280;22232;50.914;13.858;2022-09-29T16:49:59;96733.13;;;10.32;100.00
36190;BME280;22232;50.914;13.858;2022-09-29T16:57:57;96743.34;;;10.14;100.00
36190;BME280;22232;50.914;13.858;2022-09-29T17:00:25;96751.28;;;10.08;100.00
36190;BME280;22232;50.914;13.858;2022-09-29T17:02:54;96752.56;;;10.06;100.00
36190;BME280;22232;50.914;13.858;2022-09-29T17:05:23;96758.41;;;10.03;100.00